Time;durP1;ratioP1;P1;durP2;ratioP2;P2;SDS_P1;SDS_P2;PMS_P1;PMS_P2;Temp;Humidity;BMP_temperature;BMP_pressure;BME280_temperature;BME280_humidity;BME280_pressure;Samples;Min_cycle;Max_cycle;Signal;HPM_P1;HPM_P2
2023/10/09 00:02:24;;;;;;;9.27;5.63;;;;;;;20.91;57.57;102001.47;4944282;28;20045;-72
2023/10/09 00:04:51;;;;;;;8.80;5.75;;;;;;;20.92;57.48;101999.66;4944633;28;20035;-72
2023/10/09 00:07:17;;;;;;;9.38;5.70;;;;;;;20.91;57.33;102003.28;4943351;28;20871;-72
2023/10/09 00:09:48;;;;;;;9.35;5.50;;;;;;;20.90;57.54;101993.66;4943628;28;20027;-73
2023/10/09 00:12:22;;;;;;;9.40;5.65;;;;;;;20.90;57.30;101991.00;4933140;28;20038;-72
2023/10/09 00:14:50;;;;;;;8.27;5.57;;;;;;;20.90;57.44;101991.00;4944084;28;20078;-72
2023/10/09 00:19:43;;;;;;;8.98;5.50;;;;;;;20.90;57.37;101972.44;4944156;28;20035;-73
2023/10/09 00:22:28;;;;;;;9.35;5.57;;;;;;;20.89;57.23;101970.78;4944374;28;20511;-80
2023/10/09 00:25:23;;;;;;;7.82;5.10;;;;;;;20.89;57.33;101976.09;4942327;28;20090;-72
2023/10/09 00:27:46;;;;;;;7.85;5.07;;;;;;;20.89;57.24;101978.72;4941216;28;20047;-78
2023/10/09 00:30:18;;;;;;;10.10;5.43;;;;;;;20.86;57.31;101982.44;4943502;28;20051;-74
2023/10/09 00:33:03;;;;;;;10.88;5.47;;;;;;;20.87;57.31;101980.63;4943094;28;20035;-79
2023/10/09 00:38:23;;;;;;;8.32;5.13;;;;;;;20.89;57.38;101962.84;4942645;28;20035;-71
2023/10/09 00:41:03;;;;;;;9.40;5.38;;;;;;;20.87;57.39;101954.13;4941042;28;20511;-74
2023/10/09 00:43:29;;;;;;;8.15;5.20;;;;;;;20.87;57.43;101951.47;4943298;28;20057;-74
2023/10/09 00:46:03;;;;;;;9.57;5.25;;;;;;;20.85;57.55;101956.91;4940028;28;20492;-70
2023/10/09 00:48:37;;;;;;;9.27;5.47;;;;;;;20.87;57.27;101943.53;4943377;28;20039;-70
2023/10/09 00:51:12;;;;;;;9.77;5.50;;;;;;;20.87;57.32;101952.34;4942371;28;20031;-77
2023/10/09 00:53:38;;;;;;;9.00;5.30;;;;;;;20.87;57.76;101946.19;4943422;28;20035;-77
2023/10/09 00:56:39;;;;;;;8.05;4.88;;;;;;;20.87;57.59;101956.78;4925128;28;20504;-69
2023/10/09 00:59:34;;;;;;;9.75;5.47;;;;;;;20.85;57.44;101964.84;4937705;28;20556;-69
2023/10/09 01:01:58;;;;;;;9.18;5.60;;;;;;;20.85;57.15;101970.16;4942131;28;20047;-73
2023/10/09 01:04:29;;;;;;;7.90;5.18;;;;;;;20.84;57.64;101961.38;4943246;28;20047;-70
2023/10/09 01:09:55;;;;;;;8.80;5.28;;;;;;;20.84;57.69;101956.06;4929194;28;20043;-70
2023/10/09 01:12:21;;;;;;;10.35;5.60;;;;;;;20.84;57.37;101961.38;4941943;28;20053;-74
2023/10/09 01:14:55;;;;;;;7.22;4.57;;;;;;;20.84;57.53;101957.88;4941674;28;20373;-70
2023/10/09 01:20:27;;;;;;;8.75;5.25;;;;;;;20.82;57.60;101952.69;4927938;28;20048;-71
2023/10/09 01:22:53;;;;;;;8.90;5.10;;;;;;;20.84;57.77;101957.88;4941742;28;20489;-70
2023/10/09 01:25:20;;;;;;;8.40;4.93;;;;;;;20.83;57.46;101945.56;4942420;28;20039;-75
2023/10/09 01:27:45;;;;;;;9.85;5.25;;;;;;;20.84;57.53;101957.88;4942174;28;20035;-80
2023/10/09 01:30:13;;;;;;;8.60;4.97;;;;;;;20.82;57.58;101958.00;4939964;28;20157;-77
2023/10/09 01:32:40;;;;;;;8.05;5.07;;;;;;;20.81;57.67;101961.59;4942067;28;20090;-73
2023/10/09 01:35:20;;;;;;;7.90;4.68;;;;;;;20.81;57.71;101958.94;4941886;28;20031;-74
2023/10/09 01:37:50;;;;;;;7.97;5.35;;;;;;;20.81;57.75;101966.88;4943206;28;20027;-72
2023/10/09 01:40:35;;;;;;;7.18;4.53;;;;;;;20.81;57.39;101968.69;4943305;28;20114;-79
2023/10/09 01:43:03;;;;;;;8.95;4.82;;;;;;;20.82;57.76;101967.72;4942232;28;20129;-71
2023/10/09 01:45:42;;;;;;;7.55;5.20;;;;;;;20.81;57.79;101961.59;4942027;28;20035;-79
2023/10/09 01:48:08;;;;;;;8.20;5.00;;;;;;;20.81;57.54;101963.41;4944949;28;20823;-72
2023/10/09 01:50:36;;;;;;;10.15;4.88;;;;;;;20.78;57.46;101953.88;4940442;28;20039;-72
2023/10/09 01:53:02;;;;;;;6.97;4.82;;;;;;;20.80;57.41;101959.06;4948078;28;20095;-71
2023/10/09 01:55:34;;;;;;;8.07;5.47;;;;;;;20.79;57.38;101958.22;4936046;28;20312;-73
2023/10/09 01:58:05;;;;;;;6.85;4.88;;;;;;;20.78;57.88;101955.69;4943178;28;20073;-74
2023/10/09 02:00:35;;;;;;;8.90;5.63;;;;;;;20.80;57.58;101957.25;4942450;28;20041;-74
2023/10/09 02:03:05;;;;;;;7.55;5.10;;;;;;;20.80;57.71;101951.09;4958439;28;20031;-73
2023/10/09 02:05:35;;;;;;;8.43;4.72;;;;;;;20.80;57.93;101946.66;4957327;28;20042;-76
2023/10/09 02:08:03;;;;;;;7.78;4.85;;;;;;;20.79;57.53;101954.72;4957414;28;20034;-70
2023/10/09 02:13:10;;;;;;;7.55;4.95;;;;;;;20.79;57.75;101949.41;4950417;28;20047;-74
2023/10/09 02:18:25;;;;;;;8.40;5.30;;;;;;;20.79;57.67;101950.28;4951541;28;20063;-78
2023/10/09 02:23:46;;;;;;;9.93;5.00;;;;;;;20.77;57.52;101943.38;4946113;28;20609;-79
2023/10/09 02:31:40;;;;;;;8.55;4.88;;;;;;;20.80;57.73;101940.50;4946749;28;20078;-70
2023/10/09 02:34:10;;;;;;;10.73;5.32;;;;;;;20.77;57.64;101935.44;4945255;28;20504;-71
2023/10/09 02:36:43;;;;;;;8.18;4.40;;;;;;;20.77;57.52;101919.53;4947157;28;20039;-74
2023/10/09 02:39:28;;;;;;;10.38;5.75;;;;;;;20.77;57.49;101917.72;4944545;28;20027;-78
2023/10/09 02:41:58;;;;;;;7.53;4.57;;;;;;;20.76;57.40;101918.72;4944721;28;20086;-72
2023/10/09 02:44:25;;;;;;;8.13;4.95;;;;;;;20.77;57.64;101916.91;4945067;28;20058;-73
2023/10/09 02:46:51;;;;;;;8.63;4.95;;;;;;;20.76;57.49;101907.25;4945368;28;20035;-75
2023/10/09 02:49:16;;;;;;;7.60;4.75;;;;;;;20.76;57.60;101900.16;4944714;28;20089;-71
2023/10/09 02:51:42;;;;;;;8.55;4.88;;;;;;;20.76;57.70;101908.13;4943682;28;20391;-71
2023/10/09 02:54:18;;;;;;;8.05;4.97;;;;;;;20.76;57.57;101905.47;4944961;28;20035;-75
2023/10/09 02:56:47;;;;;;;7.40;4.82;;;;;;;20.76;57.83;101907.25;4944758;28;20030;-74
2023/10/09 02:59:14;;;;;;;7.95;4.80;;;;;;;20.75;57.47;101905.59;4944891;28;20038;-72
2023/10/09 03:01:41;;;;;;;10.07;4.88;;;;;;;20.76;57.53;101909.91;4943747;28;20059;-75
2023/10/09 03:04:14;;;;;;;8.38;5.05;;;;;;;20.74;57.65;101917.13;4942105;28;20037;-71
2023/10/09 03:06:49;;;;;;;7.72;4.78;;;;;;;20.75;57.47;101917.00;4945312;28;20117;-73
2023/10/09 03:09:18;;;;;;;8.23;5.00;;;;;;;20.75;57.57;101917.00;4942322;28;20047;-69
2023/10/09 03:12:09;;;;;;;9.60;4.88;;;;;;;20.74;57.68;101917.97;4945296;28;20504;-73
2023/10/09 03:14:44;;;;;;;7.82;4.93;;;;;;;20.74;57.42;101912.66;4942479;28;20046;-71
2023/10/09 03:17:11;;;;;;;;;;;;;;;20.79;57.53;101914.97;4946960;28;20082;-71
2023/10/09 03:19:37;;;;;;;7.55;4.97;;;;;;;20.80;57.14;101916.66;4944645;28;19953;-78
2023/10/09 03:22:10;;;;;;;8.00;5.38;;;;;;;20.74;57.44;101899.41;4945876;28;20106;-71
2023/10/09 03:24:36;;;;;;;7.55;4.60;;;;;;;20.75;57.62;101892.34;4939782;28;20027;-79
2023/10/09 03:27:02;;;;;;;8.00;4.65;;;;;;;20.73;57.56;101889.81;4941324;28;20035;-72
2023/10/09 03:29:28;;;;;;;7.85;5.05;;;;;;;20.73;57.52;101891.59;4944885;28;20031;-69
2023/10/09 03:31:55;;;;;;;8.55;4.88;;;;;;;20.73;57.57;101883.63;4945170;28;20050;-70
2023/10/09 03:34:21;;;;;;;7.05;4.63;;;;;;;20.73;57.69;101883.63;4944732;28;20039;-71
2023/10/09 03:36:47;;;;;;;8.52;4.30;;;;;;;20.72;57.67;101885.47;4945725;28;20484;-73
2023/10/09 03:39:58;;;;;;;7.25;4.60;;;;;;;20.70;57.45;101875.97;4943846;28;20139;-73
2023/10/09 03:42:00;;;;;;;7.45;4.70;;;;;;;20.72;57.78;101872.22;4940387;28;20191;-71
2023/10/09 03:44:28;;;;;;;8.07;4.88;;;;;;;20.72;57.37;101877.50;4946739;28;20620;-73
2023/10/09 03:46:54;;;;;;;8.07;5.28;;;;;;;20.72;57.56;101868.72;4943823;28;20067;-71
2023/10/09 03:49:26;;;;;;;7.47;4.70;;;;;;;20.70;57.47;101871.50;4944227;28;20118;-71
2023/10/09 03:51:52;;;;;;;10.52;5.13;;;;;;;20.71;57.59;101878.50;4943762;28;20146;-80
2023/10/09 03:54:22;;;;;;;6.97;4.50;;;;;;;20.71;57.46;101869.69;4943260;28;20035;-75
2023/10/09 03:56:50;;;;;;;9.77;4.82;;;;;;;20.72;57.27;101871.38;4943121;28;20031;-74
2023/10/09 03:59:22;;;;;;;7.93;4.75;;;;;;;20.70;57.24;101868.84;4942477;28;20066;-75
2023/10/09 04:01:52;;;;;;;8.07;4.97;;;;;;;20.70;57.43;101863.53;4943097;28;20562;-71
2023/10/09 04:04:22;;;;;;;8.10;4.75;;;;;;;20.70;57.18;101874.13;4941131;28;20090;-80
2023/10/09 04:06:49;;;;;;;8.07;4.68;;;;;;;20.70;57.71;101874.13;4942739;28;20114;-75
2023/10/09 04:11:46;;;;;;;9.50;5.18;;;;;;;20.70;57.43;101874.13;4943591;28;20035;-74
2023/10/09 04:14:22;;;;;;;7.35;4.47;;;;;;;20.70;57.61;101875.97;4942747;28;20034;-76
2023/10/09 04:19:47;;;;;;;7.60;5.07;;;;;;;20.70;57.69;101878.59;4934353;28;20050;-72
2023/10/09 04:22:25;;;;;;;9.23;5.93;;;;;;;20.70;57.39;101874.13;4944252;28;20504;-73
2023/10/09 04:24:51;;;;;;;8.38;5.07;;;;;;;20.70;57.36;101860.91;4943246;28;20035;-76
2023/10/09 04:27:17;;;;;;;8.07;4.50;;;;;;;20.70;57.27;101858.25;4937227;28;20031;-72
2023/10/09 04:29:46;;;;;;;7.78;4.93;;;;;;;20.69;57.29;101850.41;4940956;28;20039;-76
2023/10/09 04:32:16;;;;;;;7.68;4.82;;;;;;;20.69;57.37;101850.41;4942422;28;20035;-74
2023/10/09 04:34:49;;;;;;;8.02;4.70;;;;;;;20.69;57.29;101851.25;4942681;28;20768;-71
2023/10/09 04:40:11;;;;;;;8.80;5.07;;;;;;;20.68;57.61;101889.31;4944423;28;20035;-71
2023/10/09 04:42:37;;;;;;;8.93;4.80;;;;;;;20.68;57.46;101889.31;4946254;28;20169;-79
2023/10/09 04:47:38;;;;;;;9.25;4.95;;;;;;;20.68;57.63;101894.63;4943234;28;20101;-70
2023/10/09 05:00:22;;;;;;;7.43;5.07;;;;;;;20.67;57.47;101876.19;4943560;28;20051;-72
2023/10/09 05:02:54;;;;;;;7.18;4.82;;;;;;;20.67;57.42;101876.19;4943713;28;20833;-72
2023/10/09 05:08:21;;;;;;;8.27;4.95;;;;;;;20.68;57.46;101897.25;4951108;28;20070;-75
2023/10/09 05:16:13;;;;;;;8.02;4.72;;;;;;;20.67;57.30;101886.78;4944876;28;20504;-73
2023/10/09 05:18:44;;;;;;;9.20;4.90;;;;;;;20.64;57.45;101901.09;4944647;28;20031;-76
2023/10/09 05:34:34;;;;;;;11.10;5.47;;;;;;;20.63;57.30;101905.53;4947995;28;20072;-74
2023/10/09 06:16:43;;;;;;;9.43;5.10;;;;;;;20.66;58.34;101952.13;4944937;28;20035;-76
2023/10/09 06:24:17;;;;;;;9.80;4.97;;;;;;;20.67;58.44;101940.59;4950714;28;20487;-72
2023/10/09 06:34:56;;;;;;;8.77;5.15;;;;;;;20.67;58.84;101935.28;4949642;28;20560;-73
2023/10/09 06:45:06;;;;;;;8.82;4.93;;;;;;;20.68;59.07;101955.53;4946371;28;20043;-73
2023/10/09 06:47:40;;;;;;;10.18;5.60;;;;;;;20.70;58.67;101952.78;4945501;28;20154;-75
2023/10/09 06:55:48;;;;;;;7.25;4.45;;;;;;;20.74;58.75;101943.63;4922512;28;20073;-72
2023/10/09 06:58:26;;;;;;;9.20;4.63;;;;;;;20.73;59.08;101944.56;4943675;28;20046;-73
2023/10/09 07:03:29;;;;;;;8.90;4.20;;;;;;;20.73;59.06;101929.53;4944255;28;20924;-76
2023/10/09 07:06:24;;;;;;;7.75;4.13;;;;;;;20.72;58.81;101921.72;4942397;28;20046;-78
2023/10/09 07:15:01;;;;;;;8.35;4.95;;;;;;;20.72;58.84;101892.56;4944634;28;20043;-74
2023/10/09 07:22:52;;;;;;;9.48;4.50;;;;;;;20.73;59.11;101883.63;4942844;28;20042;-72
2023/10/09 07:25:40;;;;;;;9.40;5.07;;;;;;;20.72;58.76;101893.41;4942888;28;20042;-72
2023/10/09 07:28:29;;;;;;;7.65;4.53;;;;;;;20.71;58.63;101885.56;4943584;28;20122;-72
2023/10/09 07:30:57;;;;;;;9.57;4.85;;;;;;;20.71;58.97;101896.16;4944203;28;20083;-75
2023/10/09 07:33:31;;;;;;;10.50;4.82;;;;;;;20.72;59.01;101916.41;4942129;28;20417;-76
2023/10/09 07:35:59;;;;;;;10.75;5.10;;;;;;;20.71;59.03;101935.91;4925873;28;20039;-74
2023/10/09 07:38:28;;;;;;;7.68;4.57;;;;;;;20.72;58.89;101949.03;4944148;28;20054;-73
2023/10/09 07:40:55;;;;;;;6.95;4.10;;;;;;;20.72;58.76;101964.09;4943627;28;20035;-75
2023/10/09 07:48:52;;;;;;;10.45;4.20;;;;;;;20.57;59.32;101981.91;4941333;28;20877;-74
2023/10/09 07:51:23;;;;;;;11.07;4.93;;;;;;;20.48;60.03;101988.75;4943837;28;20110;-71
2023/10/09 07:53:56;;;;;;;8.35;4.70;;;;;;;20.43;60.01;101970.53;4942927;28;20070;-72
2023/10/09 07:56:22;;;;;;;8.55;4.57;;;;;;;20.43;59.75;101953.81;4944050;28;20087;-76
2023/10/09 07:58:48;;;;;;;8.27;4.57;;;;;;;20.42;60.03;101938.88;4943925;28;20101;-71
2023/10/09 08:01:35;;;;;;;9.23;4.80;;;;;;;20.38;60.24;101932.16;4943493;28;20035;-75
2023/10/09 08:04:10;;;;;;;8.88;4.82;;;;;;;20.37;60.01;101941.88;4942905;28;20046;-73
2023/10/09 08:06:42;;;;;;;11.35;5.03;;;;;;;20.36;60.32;101940.19;4931724;28;20038;-73
2023/10/09 08:14:48;;;;;;;11.65;4.90;;;;;;;20.33;60.25;101958.97;4927588;28;20039;-76
2023/10/09 08:19:54;;;;;;;8.95;5.43;;;;;;;20.32;60.13;101951.13;4237331;23;20067;-63
2023/10/09 08:24:56;;;;;;;11.02;4.80;;;;;;;20.36;60.38;101958.72;4938743;28;20035;-64
2023/10/09 08:28:39;;;;;;;8.35;4.50;;;;;;;20.36;60.25;101961.38;4939505;28;20474;-63
2023/10/09 08:33:35;;;;;;;15.65;5.80;;;;;;;20.37;60.69;101949.81;4936691;28;20031;-64
2023/10/09 08:35:51;;;;;;;10.15;5.15;;;;;;;20.33;60.60;101927.19;4928572;28;20394;-63
2023/10/09 08:38:23;;;;;;;10.38;4.68;;;;;;;20.35;60.83;101933.22;4935266;28;20034;-65
2023/10/09 08:40:50;;;;;;;12.15;5.03;;;;;;;20.33;60.96;101945.72;4937984;28;20031;-63
2023/10/09 08:43:20;;;;;;;8.98;5.45;;;;;;;20.33;60.87;101939.56;4937921;28;20031;-63
2023/10/09 08:45:47;;;;;;;8.27;5.28;;;;;;;20.36;60.66;101934.03;4927694;28;20043;-63
2023/10/09 08:48:15;;;;;;;9.25;4.63;;;;;;;20.34;60.65;101936.81;4954277;28;20039;-63
2023/10/09 08:50:45;;;;;;;11.18;5.53;;;;;;;20.37;60.81;101933.09;4935396;28;20042;-65
2023/10/09 08:53:12;;;;;;;10.57;5.32;;;;;;;20.36;60.64;101931.41;4935927;28;20035;-67
2023/10/09 08:55:41;;;;;;;10.60;4.50;;;;;;;20.37;60.75;101931.28;4935635;28;20118;-64
2023/10/09 08:58:19;;;;;;;10.85;5.20;;;;;;;20.41;60.64;101926.59;4935833;28;20035;-67
2023/10/09 09:00:46;;;;;;;11.30;5.30;;;;;;;20.39;60.64;101926.72;4935780;28;20039;-64
2023/10/09 09:03:16;;;;;;;11.98;5.05;;;;;;;20.41;60.77;101931.88;4939760;28;20062;-66
2023/10/09 09:05:51;;;;;;;10.00;5.25;;;;;;;20.41;60.53;101931.88;4942681;28;20089;-68
2023/10/09 09:08:25;;;;;;;14.05;6.05;;;;;;;20.43;60.59;101930.00;4941949;28;20031;-64
2023/10/09 09:11:14;;;;;;;9.23;5.10;;;;;;;20.40;60.51;101928.41;4942001;28;20073;-63
2023/10/09 09:14:04;;;;;;;11.25;5.20;;;;;;;20.41;60.63;101926.59;4941785;28;20047;-63
2023/10/09 09:16:31;;;;;;;9.82;5.07;;;;;;;20.44;60.38;101944.91;4941477;28;20039;-63
2023/10/09 09:21:39;;;;;;;9.73;5.10;;;;;;;20.46;60.84;101949.13;4941834;28;20102;-65
2023/10/09 09:25:00;;;;;;;11.15;5.75;;;;;;;20.48;60.48;101955.16;4942404;28;20066;-65
2023/10/09 09:27:00;;;;;;;10.27;6.57;;;;;;;20.48;60.33;101967.56;4934469;28;20082;-64
2023/10/09 09:29:37;;;;;;;9.77;5.15;;;;;;;20.51;60.73;101972.63;4941618;28;20545;-64
2023/10/09 09:32:17;;;;;;;6.82;4.35;;;;;;;20.54;60.31;101969.75;4941901;28;20043;-63
2023/10/09 09:34:49;;;;;;;8.63;4.75;;;;;;;20.54;60.34;101974.22;4941571;28;20054;-65
2023/10/09 09:37:24;;;;;;;9.73;4.78;;;;;;;20.56;60.82;101981.06;4941758;28;20034;-64
2023/10/09 09:39:51;;;;;;;10.25;5.20;;;;;;;20.56;60.33;101978.44;4942396;28;20035;-63
2023/10/09 09:42:18;;;;;;;11.63;4.90;;;;;;;20.53;60.56;101986.59;4941959;28;20098;-64
2023/10/09 09:44:45;;;;;;;9.20;5.07;;;;;;;20.55;60.43;101983.84;4941787;28;20104;-66
2023/10/09 09:47:25;;;;;;;9.15;4.78;;;;;;;20.53;60.63;101991.06;4941351;28;20027;-65
2023/10/09 09:49:52;;;;;;;9.57;4.70;;;;;;;20.54;60.78;101995.41;4934796;28;20031;-65
2023/10/09 09:52:18;;;;;;;10.35;4.85;;;;;;;20.52;60.85;101992.88;4942321;28;20398;-65
2023/10/09 09:54:44;;;;;;;11.70;5.15;;;;;;;20.54;60.43;102003.34;4942126;28;20035;-65
2023/10/09 09:57:13;;;;;;;9.48;4.70;;;;;;;20.54;60.96;102000.72;4942134;28;20407;-64
2023/10/09 09:59:49;;;;;;;8.98;4.43;;;;;;;20.55;60.65;101999.72;4941977;28;20039;-66
2023/10/09 10:02:22;;;;;;;16.20;5.05;;;;;;;20.55;60.79;101997.09;4960574;28;20058;-66
2023/10/09 10:04:53;;;;;;;9.15;5.20;;;;;;;20.55;60.51;101997.91;4952863;28;20118;-64
2023/10/09 10:07:21;;;;;;;9.55;5.07;;;;;;;20.56;60.63;101998.78;4941543;28;20043;-64
2023/10/09 10:09:48;;;;;;;19.33;4.75;;;;;;;20.57;60.53;102001.31;4942830;28;20400;-65
2023/10/09 10:12:34;;;;;;;8.80;4.05;;;;;;;20.79;59.56;102007.69;4950877;28;20095;-67
2023/10/09 10:15:07;;;;;;;7.90;4.53;;;;;;;20.94;59.60;102008.38;4949627;28;20126;-64
2023/10/09 10:18:04;;;;;;;8.65;5.22;;;;;;;21.00;59.33;102003.44;4949471;28;20035;-66
2023/10/09 10:20:31;;;;;;;8.65;4.68;;;;;;;21.07;59.02;102008.28;4948023;28;20127;-69
2023/10/09 10:23:25;;;;;;;8.88;4.82;;;;;;;21.03;59.01;102007.69;4950607;28;20051;-67
2023/10/09 10:25:51;;;;;;;11.03;4.60;;;;;;;21.05;59.04;102005.75;4943185;28;20023;-62
2023/10/09 10:28:42;;;;;;;10.00;4.80;;;;;;;21.03;59.28;101999.72;4951027;28;20043;-65
2023/10/09 10:31:08;;;;;;;10.15;5.25;;;;;;;21.06;59.18;102001.28;4951208;28;20035;-67
2023/10/09 10:33:53;;;;;;;8.07;4.20;;;;;;;21.09;59.00;102011.66;4949388;28;20115;-67
2023/10/09 10:36:22;;;;;;;11.43;5.35;;;;;;;21.09;58.96;102016.97;4950194;28;20046;-65
2023/10/09 10:39:08;;;;;;;8.63;5.55;;;;;;;21.06;59.40;102003.94;4950611;28;20053;-66
2023/10/09 10:41:38;;;;;;;9.57;5.07;;;;;;;21.07;59.25;102002.97;4950338;28;20102;-65
2023/10/09 10:46:52;;;;;;;8.80;4.80;;;;;;;21.08;59.30;101994.06;4950452;28;20695;-67
2023/10/09 10:49:21;;;;;;;12.95;5.32;;;;;;;21.09;59.24;101990.44;4949672;28;20460;-66
2023/10/09 10:51:48;;;;;;;9.75;5.63;;;;;;;21.11;59.35;101992.03;4949994;28;20119;-67
2023/10/09 10:57:03;;;;;;;12.45;5.35;;;;;;;21.13;59.46;101991.91;4944484;28;20118;-67
2023/10/09 10:59:38;;;;;;;8.95;4.88;;;;;;;21.13;59.62;101994.56;4950026;28;20031;-68
2023/10/09 11:04:42;;;;;;;10.82;4.75;;;;;;;21.14;59.22;101985.63;4948529;28;20039;-67
2023/10/09 11:07:24;;;;;;;7.13;4.30;;;;;;;21.15;59.60;101995.28;4949926;28;20086;-67
2023/10/09 11:12:38;;;;;;;9.07;4.78;;;;;;;21.16;59.51;102010.25;4949347;28;20384;-66
2023/10/09 11:15:07;;;;;;;8.43;5.13;;;;;;;21.17;59.37;102011.91;4949497;28;20105;-63
2023/10/09 11:17:35;;;;;;;11.38;5.15;;;;;;;21.17;59.56;102003.97;4949811;28;20039;-66
2023/10/09 11:25:34;;;;;;;9.73;5.30;;;;;;;20.85;60.66;102001.94;4954805;28;20097;-64
2023/10/09 11:28:15;;;;;;;11.55;5.45;;;;;;;20.79;60.75;101997.97;4935509;28;20993;-68
2023/10/09 11:30:40;;;;;;;10.48;5.30;;;;;;;20.81;61.10;101997.84;4936737;28;20069;-65
2023/10/09 11:33:14;;;;;;;9.68;4.97;;;;;;;20.76;60.97;101994.66;4936645;28;20723;-61
2023/10/09 11:35:41;;;;;;;11.13;4.77;;;;;;;20.72;61.09;101993.22;4936406;28;20043;-65
2023/10/09 11:38:20;;;;;;;8.60;4.20;;;;;;;20.72;61.08;101988.75;4919402;28;20124;-66
2023/10/09 11:43:24;;;;;;;11.68;5.35;;;;;;;20.80;60.76;101993.50;4936139;28;20047;-68
2023/10/09 11:45:56;;;;;;;8.63;4.65;;;;;;;20.79;61.06;101990.00;4929285;28;20034;-65
2023/10/09 11:48:33;;;;;;;8.88;4.82;;;;;;;20.82;61.22;101988.91;4936667;28;20073;-66
2023/10/09 11:53:54;;;;;;;9.65;4.82;;;;;;;20.82;61.09;101988.91;4937064;28;20063;-64
2023/10/09 11:56:22;;;;;;;8.15;4.25;;;;;;;20.78;61.05;101993.59;4935911;28;20046;-65
2023/10/09 11:58:49;;;;;;;7.95;4.60;;;;;;;20.77;60.79;101991.06;4936022;28;20039;-63
2023/10/09 12:01:20;;;;;;;10.32;4.55;;;;;;;20.76;61.22;101992.88;4934114;28;20130;-62
2023/10/09 12:03:53;;;;;;;5.95;3.60;;;;;;;20.75;60.84;101995.66;4946171;28;20034;-65
2023/10/09 12:06:22;;;;;;;7.72;4.00;;;;;;;20.75;61.27;101995.66;4955055;28;20045;-65
2023/10/09 12:08:48;;;;;;;8.68;4.22;;;;;;;20.76;61.40;101998.19;4935672;28;20043;-64
2023/10/09 12:11:15;;;;;;;12.20;4.65;;;;;;;20.78;61.39;101993.59;4948408;28;20034;-65
2023/10/09 12:13:43;;;;;;;12.63;4.53;;;;;;;20.79;61.39;101990.00;4918201;28;20035;-64
2023/10/09 12:16:09;;;;;;;10.13;4.75;;;;;;;20.82;61.26;101991.56;4935886;28;20081;-66
2023/10/09 12:18:36;;;;;;;10.02;4.03;;;;;;;20.81;61.12;101988.09;4931484;28;20134;-63
2023/10/09 12:21:04;;;;;;;9.95;4.00;;;;;;;20.80;61.02;101981.09;4935008;28;20031;-64
2023/10/09 12:23:35;;;;;;;10.27;4.30;;;;;;;20.80;61.13;101985.53;4935093;28;20043;-64
2023/10/09 12:26:01;;;;;;;10.27;3.92;;;;;;;20.80;61.03;101981.09;4935396;28;20043;-66
2023/10/09 12:28:29;;;;;;;6.97;3.53;;;;;;;20.82;60.83;101983.63;4935290;28;20104;-64
2023/10/09 12:30:55;;;;;;;11.23;4.65;;;;;;;20.81;61.13;101974.00;4935239;28;20046;-65
2023/10/09 12:33:27;;;;;;;7.90;4.15;;;;;;;20.80;61.16;101975.78;4935245;28;20639;-65
2023/10/09 12:35:58;;;;;;;6.13;3.60;;;;;;;20.82;60.78;101980.97;4935145;28;20057;-65
2023/10/09 12:38:31;;;;;;;9.82;3.70;;;;;;;20.82;61.15;101978.31;4935156;28;20042;-66
2023/10/09 12:41:18;;;;;;;9.88;4.13;;;;;;;20.83;61.19;101977.38;4935800;28;20044;-64
2023/10/09 12:43:44;;;;;;;7.80;4.05;;;;;;;20.87;61.34;101972.69;4935486;28;20053;-64
2023/10/09 12:46:09;;;;;;;8.05;3.58;;;;;;;20.88;60.96;101964.63;4935295;28;20023;-66
2023/10/09 12:48:35;;;;;;;8.25;3.72;;;;;;;20.86;61.11;101971.00;4918058;28;20129;-66
2023/10/09 12:51:06;;;;;;;11.23;3.97;;;;;;;20.86;60.91;101965.72;4935743;28;20058;-63
2023/10/09 12:53:34;;;;;;;7.18;3.83;;;;;;;20.86;61.07;101971.00;4934960;28;20038;-65
2023/10/09 12:55:59;;;;;;;7.80;3.72;;;;;;;20.84;61.12;101961.38;4935556;28;20043;-67
2023/10/09 12:58:26;;;;;;;9.52;3.60;;;;;;;20.83;60.93;101954.34;4935159;28;20162;-65
2023/10/09 13:00:52;;;;;;;8.52;3.70;;;;;;;20.84;60.95;101939.34;4935261;28;20442;-64
2023/10/09 13:03:18;;;;;;;8.65;4.03;;;;;;;20.84;61.14;101934.88;4935517;28;20039;-66
2023/10/09 13:05:51;;;;;;;7.95;3.35;;;;;;;20.86;61.30;101931.28;4935108;28;20039;-66
2023/10/09 13:08:22;;;;;;;6.68;3.38;;;;;;;20.85;61.34;101933.06;4934000;28;20034;-67
2023/10/09 13:10:58;;;;;;;7.13;3.45;;;;;;;20.90;61.03;101935.34;4936438;28;20062;-65
2023/10/09 13:13:40;;;;;;;9.85;3.70;;;;;;;20.89;61.45;101937.16;4934837;28;20477;-66
2023/10/09 13:16:07;;;;;;;7.10;3.40;;;;;;;20.90;60.96;101933.53;4955015;28;20125;-64
2023/10/09 13:18:33;;;;;;;6.15;3.33;;;;;;;20.89;60.94;101933.69;4935612;28;20094;-67
2023/10/09 13:21:03;;;;;;;8.43;3.40;;;;;;;20.89;60.68;101931.03;4932531;28;20745;-64
2023/10/09 13:23:38;;;;;;;7.70;3.50;;;;;;;20.87;61.25;101931.16;4924837;28;20046;-63
2023/10/09 13:26:08;;;;;;;7.93;3.20;;;;;;;20.87;61.06;101922.34;4938391;28;20054;-64
2023/10/09 13:28:37;;;;;;;6.90;3.20;;;;;;;21.08;60.64;101936.59;4947294;28;20159;-66
2023/10/09 13:31:05;;;;;;;9.00;3.28;;;;;;;21.22;59.86;101942.63;4943570;28;20041;-63
2023/10/09 13:33:36;;;;;;;7.32;3.08;;;;;;;21.32;59.63;101949.78;4946462;28;20050;-65
2023/10/09 13:36:02;;;;;;;8.13;3.40;;;;;;;21.37;59.60;101949.41;4946762;28;20042;-66
2023/10/09 13:38:27;;;;;;;7.80;3.45;;;;;;;21.40;59.29;101948.34;4945570;28;20537;-67
2023/10/09 13:41:03;;;;;;;5.85;3.08;;;;;;;21.37;59.40;101942.28;4946880;28;20531;-66
2023/10/09 13:43:29;;;;;;;11.50;3.65;;;;;;;21.40;59.30;101946.53;4945227;28;20075;-67
2023/10/09 13:45:57;;;;;;;5.53;3.08;;;;;;;21.40;58.88;101935.91;4945795;28;20527;-65
2023/10/09 13:48:23;;;;;;;8.63;3.80;;;;;;;21.41;59.23;101947.38;4948490;28;20051;-64
2023/10/09 13:50:57;;;;;;;6.05;3.28;;;;;;;21.38;58.96;101941.34;4950601;28;20038;-66
2023/10/09 13:53:26;;;;;;;6.28;3.10;;;;;;;21.41;58.82;101945.53;4950138;28;20756;-65
2023/10/09 13:55:53;;;;;;;8.75;3.72;;;;;;;21.39;58.93;101947.47;4950806;28;20086;-66
2023/10/09 13:58:20;;;;;;;7.75;3.17;;;;;;;21.39;58.99;101947.47;4950700;28;20863;-65
2023/10/09 14:00:49;;;;;;;6.70;3.40;;;;;;;21.38;59.14;101948.47;4940591;28;20035;-64
2023/10/09 14:03:19;;;;;;;6.20;2.83;;;;;;;21.35;59.13;101946.03;4949653;28;20480;-64
2023/10/09 14:06:10;;;;;;;7.88;3.53;;;;;;;21.35;59.25;101943.41;4950984;28;20031;-64
2023/10/09 14:08:36;;;;;;;7.80;3.10;;;;;;;21.37;59.15;101949.41;4950102;28;20051;-64
2023/10/09 14:11:03;;;;;;;8.32;3.33;;;;;;;21.35;58.86;101949.53;4950384;28;20032;-65
2023/10/09 14:13:29;;;;;;;7.72;3.78;;;;;;;21.33;58.98;101946.16;4949882;28;20054;-64
2023/10/09 14:15:54;;;;;;;7.35;3.50;;;;;;;21.34;59.16;101945.19;4947923;28;20043;-64
2023/10/09 14:18:21;;;;;;;6.70;3.42;;;;;;;21.29;59.35;101944.69;4949872;28;20043;-65
2023/10/09 14:20:47;;;;;;;5.75;3.08;;;;;;;21.31;59.04;101945.41;4942665;28;20135;-66
2023/10/09 14:23:20;;;;;;;7.18;3.40;;;;;;;21.32;59.24;101941.81;4949780;28;20139;-65
2023/10/09 14:25:49;;;;;;;6.05;3.13;;;;;;;21.29;59.38;101939.41;4942395;28;20035;-64
2023/10/09 14:28:18;;;;;;;7.03;3.38;;;;;;;21.27;59.53;101941.34;4947654;28;20055;-63
2023/10/09 14:30:44;;;;;;;7.47;3.30;;;;;;;21.28;59.38;101947.47;4949846;28;20035;-65
2023/10/09 14:33:13;;;;;;;5.80;2.88;;;;;;;21.27;59.67;101943.13;4946996;28;20074;-65
2023/10/09 14:35:40;;;;;;;8.07;3.55;;;;;;;21.26;59.27;101942.28;4949338;28;20046;-64
2023/10/09 14:38:12;;;;;;;6.90;3.30;;;;;;;21.27;59.34;101951.06;4949614;28;20043;-64
2023/10/09 14:40:44;;;;;;;6.22;3.05;;;;;;;21.26;59.68;101944.94;4949557;28;20031;-64
2023/10/09 14:43:18;;;;;;;6.13;2.83;;;;;;;21.29;59.28;101943.88;4949871;28;20055;-64
2023/10/09 14:45:48;;;;;;;5.78;3.03;;;;;;;21.27;59.28;101930.72;4949834;28;20072;-64
2023/10/09 14:48:18;;;;;;;6.57;3.17;;;;;;;21.27;59.34;101941.34;4950075;28;20082;-65
2023/10/09 14:50:52;;;;;;;6.05;3.10;;;;;;;21.24;59.53;101940.72;4947732;28;20066;-65
2023/10/09 14:53:19;;;;;;;7.07;3.42;;;;;;;21.25;59.36;101939.75;4949080;28;20055;-63
2023/10/09 14:55:45;;;;;;;6.78;3.35;;;;;;;21.26;59.51;101936.16;4949497;28;20047;-64